Time;durP1;ratioP1;P1;durP2;ratioP2;P2;SDS_P1;SDS_P2;PMS_P1;PMS_P2;Temp;Humidity;BMP_temperature;BMP_pressure;BME280_temperature;BME280_humidity;BME280_pressure;Samples;Min_cycle;Max_cycle;Signal;HPM_P1;HPM_P2
2021/04/29 00:01:46;;;;;;;13.90;8.93;;;11.20;58.50;;;;;;5030792;28;20067;-71
2021/04/29 00:04:13;;;;;;;12.90;7.93;;;11.20;58.60;;;;;;5029040;28;20061;-71
2021/04/29 00:06:39;;;;;;;12.18;7.70;;;11.20;58.50;;;;;;5027093;28;20084;-71
2021/04/29 00:09:05;;;;;;;13.32;8.50;;;11.20;58.60;;;;;;5025024;28;20029;-71
2021/04/29 00:11:33;;;;;;;14.77;8.20;;;11.10;58.60;;;;;;5030540;28;20057;-71
2021/04/29 00:14:00;;;;;;;13.63;9.50;;;11.10;58.70;;;;;;5030525;28;20072;-71
2021/04/29 00:16:26;;;;;;;13.45;8.68;;;11.10;58.90;;;;;;5016791;28;20053;-71
2021/04/29 00:18:52;;;;;;;12.27;7.63;;;11.10;58.80;;;;;;5030402;28;20458;-71
2021/04/29 00:21:18;;;;;;;13.55;8.65;;;11.10;58.70;;;;;;5030707;28;20064;-71
2021/04/29 00:23:44;;;;;;;11.75;7.53;;;11.10;58.80;;;;;;5031000;28;20064;-71
2021/04/29 00:26:11;;;;;;;12.35;7.93;;;11.10;58.80;;;;;;5030832;28;20060;-71
2021/04/29 00:28:37;;;;;;;12.25;8.20;;;11.00;58.80;;;;;;5030612;28;20049;-71
2021/04/29 00:31:03;;;;;;;14.15;9.25;;;11.00;58.80;;;;;;5030552;28;21767;-71
2021/04/29 00:33:29;;;;;;;14.55;9.70;;;11.00;58.90;;;;;;5030203;28;20409;-71
2021/04/29 00:36:00;;;;;;;13.43;9.30;;;10.90;58.90;;;;;;5022511;28;20506;-71
2021/04/29 00:38:29;;;;;;;12.88;7.95;;;10.90;59.00;;;;;;5045853;28;20064;-71
2021/04/29 00:40:56;;;;;;;14.18;8.90;;;10.90;59.00;;;;;;5017190;28;20056;-71
2021/04/29 00:43:22;;;;;;;11.98;8.30;;;10.90;59.10;;;;;;5030646;28;20446;-71
2021/04/29 00:45:48;;;;;;;14.20;8.35;;;10.80;59.10;;;;;;5030462;28;20030;-71
2021/04/29 00:48:15;;;;;;;12.10;8.45;;;10.80;59.10;;;;;;5027247;28;20056;-71
2021/04/29 00:50:42;;;;;;;12.55;9.32;;;10.80;59.20;;;;;;5030421;28;20064;-71
2021/04/29 00:53:08;;;;;;;12.75;8.52;;;10.80;59.20;;;;;;5033767;28;20479;-71
2021/04/29 00:55:34;;;;;;;12.50;8.55;;;10.80;59.20;;;;;;5031663;28;20064;-71
2021/04/29 00:58:01;;;;;;;12.70;8.55;;;10.80;59.20;;;;;;5029604;28;20541;-71
2021/04/29 01:00:28;;;;;;;11.70;7.88;;;10.80;59.20;;;;;;5013599;28;20058;-71
2021/04/29 01:02:59;;;;;;;13.10;8.68;;;10.70;59.20;;;;;;5013773;28;20106;-71
2021/04/29 01:05:37;;;;;;;12.90;8.77;;;10.80;59.20;;;;;;5019436;28;20096;-71
2021/04/29 01:08:16;;;;;;;11.65;8.15;;;10.70;59.30;;;;;;5029792;28;20056;-71
2021/04/29 01:10:50;;;;;;;12.45;8.80;;;10.70;59.30;;;;;;5025906;28;20080;-71
2021/04/29 01:13:23;;;;;;;13.18;8.55;;;10.70;59.30;;;;;;5033423;28;20045;-71
2021/04/29 01:15:51;;;;;;;13.80;8.80;;;10.70;59.50;;;;;;5033470;28;20064;-71
2021/04/29 01:18:21;;;;;;;10.95;8.07;;;10.70;59.50;;;;;;5019305;28;20033;-71
2021/04/29 01:21:04;;;;;;;11.60;8.43;;;10.70;59.50;;;;;;5049161;28;20025;-71
2021/04/29 01:23:30;;;;;;;11.25;8.07;;;10.70;59.50;;;;;;5033493;28;20045;-71
2021/04/29 01:26:01;;;;;;;13.85;10.00;;;10.70;59.50;;;;;;5048762;28;20037;-71
2021/04/29 01:28:28;;;;;;;14.15;9.23;;;10.70;59.60;;;;;;5033631;28;20017;-71
2021/04/29 01:30:57;;;;;;;13.35;8.82;;;10.70;59.60;;;;;;5033235;28;20025;-71
2021/04/29 01:33:24;;;;;;;11.75;8.30;;;10.60;59.60;;;;;;5031441;28;20509;-71
2021/04/29 01:35:51;;;;;;;12.77;9.00;;;10.60;59.60;;;;;;5026417;28;20061;-71
2021/04/29 01:38:17;;;;;;;11.90;8.55;;;10.60;59.80;;;;;;5033172;28;20064;-71
2021/04/29 01:40:43;;;;;;;12.23;8.88;;;10.60;59.80;;;;;;5019485;28;20033;-71
2021/04/29 01:43:09;;;;;;;12.20;9.40;;;10.50;59.90;;;;;;5033254;28;20061;-71
2021/04/29 01:45:36;;;;;;;13.35;9.48;;;10.50;60.00;;;;;;5032822;28;20049;-71
2021/04/29 01:48:03;;;;;;;13.77;8.88;;;10.50;59.90;;;;;;5031625;28;20064;-71
2021/04/29 01:50:30;;;;;;;10.90;8.68;;;10.50;59.90;;;;;;5028168;28;20095;-71
2021/04/29 01:52:57;;;;;;;12.45;8.80;;;10.40;59.90;;;;;;5032756;28;20067;-71
2021/04/29 01:55:24;;;;;;;10.70;7.97;;;10.40;60.00;;;;;;5032878;28;20060;-71
2021/04/29 01:57:54;;;;;;;13.25;8.57;;;10.40;60.10;;;;;;5032679;28;20017;-71
2021/04/29 02:00:20;;;;;;;11.13;7.93;;;10.30;60.00;;;;;;5032036;28;20065;-74
2021/04/29 02:02:47;;;;;;;11.30;8.73;;;10.40;60.00;;;;;;5032514;28;20109;-74
2021/04/29 02:05:13;;;;;;;12.18;8.55;;;10.30;60.10;;;;;;5032269;28;20045;-71
2021/04/29 02:07:39;;;;;;;11.15;8.43;;;10.30;60.10;;;;;;5031238;28;20068;-71
2021/04/29 02:10:06;;;;;;;11.13;8.45;;;10.30;61.20;;;;;;5032679;28;20473;-71
2021/04/29 02:12:38;;;;;;;12.45;7.63;;;10.30;60.20;;;;;;5032634;28;20064;-71
2021/04/29 02:15:08;;;;;;;11.43;7.90;;;10.20;60.20;;;;;;5031176;28;20029;-71
2021/04/29 02:18:01;;;;;;;11.45;8.40;;;10.20;60.30;;;;;;5031339;28;20525;-71
2021/04/29 02:20:30;;;;;;;12.70;8.98;;;10.10;60.40;;;;;;5032444;28;20029;-71
2021/04/29 02:22:58;;;;;;;12.52;9.40;;;10.10;60.50;;;;;;5032116;28;20061;-72
2021/04/29 02:25:27;;;;;;;15.10;11.30;;;10.10;60.60;;;;;;5032383;28;20067;-72
2021/04/29 02:27:55;;;;;;;15.00;10.85;;;10.10;61.00;;;;;;5032226;28;20053;-72
2021/04/29 02:30:22;;;;;;;12.82;10.27;;;10.10;60.90;;;;;;5014138;28;20061;-71
2021/04/29 02:32:48;;;;;;;14.18;10.70;;;10.10;61.00;;;;;;5032864;28;20076;-71
2021/04/29 02:35:17;;;;;;;15.38;11.77;;;10.00;60.90;;;;;;5027862;28;20497;-71
2021/04/29 02:37:45;;;;;;;13.50;10.00;;;10.00;61.40;;;;;;5031983;28;20057;-71
2021/04/29 02:40:13;;;;;;;12.15;9.80;;;10.00;61.20;;;;;;5030403;28;20057;-71
2021/04/29 02:42:40;;;;;;;12.73;9.23;;;10.00;61.30;;;;;;5032179;28;20528;-71
2021/04/29 02:45:08;;;;;;;12.32;8.88;;;9.90;61.30;;;;;;5028333;28;20064;-71
2021/04/29 02:47:37;;;;;;;13.20;9.27;;;9.90;61.30;;;;;;5025302;28;20053;-71
2021/04/29 02:50:05;;;;;;;14.35;10.55;;;9.80;61.30;;;;;;5029472;28;20048;-71
2021/04/29 02:52:31;;;;;;;14.10;11.27;;;9.80;61.50;;;;;;5031577;28;20017;-71
2021/04/29 02:54:58;;;;;;;13.05;9.70;;;9.80;61.60;;;;;;5031948;28;20064;-71
2021/04/29 02:57:24;;;;;;;11.23;8.57;;;9.70;61.50;;;;;;5031858;28;20057;-71
2021/04/29 02:59:50;;;;;;;14.40;9.20;;;9.80;61.50;;;;;;5031904;28;20061;-71
2021/04/29 03:02:16;;;;;;;11.38;8.70;;;9.70;61.50;;;;;;5045700;28;20026;-71
2021/04/29 03:04:43;;;;;;;12.90;8.20;;;9.70;61.40;;;;;;5031443;28;20445;-71
2021/04/29 03:07:09;;;;;;;10.68;7.90;;;9.70;61.40;;;;;;5031072;28;20046;-71
2021/04/29 03:09:36;;;;;;;12.18;9.15;;;9.70;61.50;;;;;;5046762;28;20022;-71
2021/04/29 03:12:02;;;;;;;13.95;8.50;;;9.70;61.70;;;;;;5031021;28;20060;-71
2021/04/29 03:14:28;;;;;;;12.52;10.07;;;9.70;61.70;;;;;;5031396;28;20067;-71
2021/04/29 03:16:54;;;;;;;13.00;9.38;;;9.70;61.80;;;;;;5026374;28;20025;-71
2021/04/29 03:19:21;;;;;;;13.13;9.50;;;9.70;61.90;;;;;;5029390;28;20087;-71
2021/04/29 03:21:47;;;;;;;13.15;9.13;;;9.70;62.00;;;;;;5031471;28;20057;-71
2021/04/29 03:24:13;;;;;;;12.38;9.13;;;9.60;62.00;;;;;;5031081;28;20065;-71
2021/04/29 03:26:39;;;;;;;11.18;8.43;;;9.70;62.00;;;;;;5031124;28;20053;-71
2021/04/29 03:29:05;;;;;;;13.57;9.10;;;9.60;61.80;;;;;;5031162;28;20060;-71
2021/04/29 03:31:31;;;;;;;13.18;9.82;;;9.60;62.00;;;;;;5031140;28;20067;-71
2021/04/29 03:33:57;;;;;;;13.68;10.77;;;9.60;62.10;;;;;;5031090;28;20049;-71
2021/04/29 03:36:23;;;;;;;15.65;11.82;;;9.60;62.20;;;;;;5027342;28;20207;-71
2021/04/29 03:38:49;;;;;;;13.52;10.55;;;9.60;62.50;;;;;;5031242;28;20049;-71
2021/04/29 03:41:15;;;;;;;14.23;11.57;;;9.60;62.40;;;;;;5030640;28;20030;-71
2021/04/29 03:43:41;;;;;;;14.18;11.23;;;9.60;62.30;;;;;;5030994;28;20045;-71
2021/04/29 03:46:07;;;;;;;13.38;10.55;;;9.60;62.70;;;;;;5031107;28;20072;-71
2021/04/29 03:48:34;;;;;;;12.07;9.95;;;9.60;62.50;;;;;;5028682;28;20481;-71
2021/04/29 03:51:00;;;;;;;14.02;10.57;;;9.50;62.70;;;;;;5031158;28;20065;-71
2021/04/29 03:53:26;;;;;;;12.38;10.40;;;9.50;62.60;;;;;;5030449;28;20055;-71
2021/04/29 03:55:52;;;;;;;12.73;10.40;;;9.50;62.90;;;;;;5030922;28;20057;-71
2021/04/29 03:58:18;;;;;;;12.55;10.13;;;9.60;63.00;;;;;;5030822;28;20076;-71
2021/04/29 04:00:44;;;;;;;14.60;11.07;;;9.50;63.20;;;;;;5031109;28;20466;-71
2021/04/29 04:03:10;;;;;;;14.30;11.02;;;9.50;63.50;;;;;;5031027;28;20068;-71
2021/04/29 04:05:36;;;;;;;14.52;11.60;;;9.50;63.80;;;;;;5030165;28;20081;-71
2021/04/29 04:08:03;;;;;;;16.15;12.40;;;9.50;63.90;;;;;;5031003;28;20523;-71
2021/04/29 04:10:29;;;;;;;13.88;11.70;;;9.50;63.90;;;;;;5030535;28;20063;-71
2021/04/29 04:12:55;;;;;;;13.77;9.57;;;9.50;63.80;;;;;;5030622;28;20052;-71
2021/04/29 04:15:21;;;;;;;12.77;10.02;;;9.50;63.70;;;;;;5030626;28;20030;-71
2021/04/29 04:17:47;;;;;;;11.90;9.38;;;9.50;63.80;;;;;;5030682;28;20053;-71
2021/04/29 04:20:14;;;;;;;12.93;10.38;;;9.50;63.80;;;;;;5030722;28;20032;-71
2021/04/29 04:22:40;;;;;;;13.65;9.82;;;9.50;64.00;;;;;;5030897;28;20077;-71
2021/04/29 04:25:07;;;;;;;11.55;8.95;;;9.50;64.10;;;;;;5022274;28;20069;-71
2021/04/29 04:27:34;;;;;;;13.32;11.30;;;9.50;64.00;;;;;;5034672;28;20430;-71
2021/04/29 04:30:00;;;;;;;12.23;9.32;;;9.40;64.10;;;;;;5034438;28;20064;-71
2021/04/29 04:32:26;;;;;;;13.75;9.85;;;9.40;64.20;;;;;;5034108;28;20073;-71
2021/04/29 04:34:52;;;;;;;14.45;12.02;;;9.40;64.20;;;;;;5030454;28;20728;-71
2021/04/29 04:37:19;;;;;;;13.30;10.27;;;9.40;64.40;;;;;;5034344;28;20060;-71
2021/04/29 04:39:45;;;;;;;12.18;9.90;;;9.40;64.10;;;;;;5033812;28;20095;-71
2021/04/29 04:42:11;;;;;;;13.57;10.00;;;9.40;65.20;;;;;;5034381;28;20516;-71
2021/04/29 04:44:37;;;;;;;13.50;10.60;;;9.40;64.40;;;;;;5032835;28;20064;-71
2021/04/29 04:47:03;;;;;;;13.85;10.43;;;9.40;64.50;;;;;;5034094;28;20493;-71
2021/04/29 04:49:29;;;;;;;13.25;10.40;;;9.40;64.70;;;;;;5033993;28;20068;-71
2021/04/29 04:51:56;;;;;;;12.27;9.35;;;9.40;64.70;;;;;;5034110;28;20041;-71
2021/04/29 04:54:22;;;;;;;12.95;9.25;;;9.40;64.50;;;;;;5032425;28;20073;-71
2021/04/29 04:56:49;;;;;;;12.82;10.30;;;9.40;64.70;;;;;;5049287;28;20025;-71
2021/04/29 04:59:15;;;;;;;15.77;11.88;;;9.40;65.00;;;;;;5026684;28;20474;-71
2021/04/29 05:01:41;;;;;;;14.57;11.60;;;9.40;65.20;;;;;;5034307;28;20021;-71
2021/04/29 05:04:08;;;;;;;14.13;10.98;;;9.40;66.00;;;;;;5033568;28;20061;-71
2021/04/29 05:06:35;;;;;;;14.70;11.23;;;9.40;66.00;;;;;;5033433;28;20073;-71
2021/04/29 05:09:05;;;;;;;15.93;12.30;;;9.40;66.20;;;;;;5033532;28;20057;-71
2021/04/29 05:11:31;;;;;;;14.55;10.48;;;9.40;66.10;;;;;;5033710;28;20495;-71
2021/04/29 05:13:58;;;;;;;14.65;11.10;;;9.40;66.00;;;;;;5033814;28;20064;-71
2021/04/29 05:16:25;;;;;;;16.30;12.68;;;9.50;66.30;;;;;;5024578;28;20060;-71
2021/04/29 05:18:51;;;;;;;16.75;13.63;;;9.40;66.20;;;;;;5033644;28;20526;-71
2021/04/29 05:21:17;;;;;;;16.50;12.23;;;9.40;67.10;;;;;;5033182;28;20492;-71
2021/04/29 05:23:46;;;;;;;14.10;11.63;;;9.50;67.00;;;;;;5047729;28;20037;-71
2021/04/29 05:26:13;;;;;;;14.55;11.27;;;9.40;66.80;;;;;;5024964;28;20068;-71
2021/04/29 05:28:39;;;;;;;15.45;11.60;;;9.50;67.10;;;;;;5032198;28;20430;-71
2021/04/29 05:31:05;;;;;;;14.80;12.13;;;9.50;67.00;;;;;;5031613;28;20079;-71
2021/04/29 05:33:31;;;;;;;15.75;12.80;;;9.50;67.40;;;;;;5032956;28;20057;-72
2021/04/29 05:35:58;;;;;;;15.85;12.35;;;9.50;68.00;;;;;;5028874;28;20068;-71
2021/04/29 05:38:24;;;;;;;15.10;11.57;;;9.50;67.50;;;;;;5028949;28;20068;-73
2021/04/29 05:40:50;;;;;;;14.35;11.50;;;9.60;67.80;;;;;;5032473;28;20037;-69
2021/04/29 05:43:16;;;;;;;12.25;9.30;;;9.60;67.50;;;;;;5032104;28;20025;-70
2021/04/29 05:45:42;;;;;;;12.13;8.32;;;9.60;67.50;;;;;;5032078;28;20052;-69
2021/04/29 05:48:08;;;;;;;13.95;10.02;;;9.60;67.50;;;;;;5026403;28;20482;-70
2021/04/29 05:50:35;;;;;;;12.23;9.63;;;9.70;67.70;;;;;;5015775;28;20052;-69
2021/04/29 05:53:01;;;;;;;12.82;8.73;;;9.70;67.70;;;;;;5018659;28;20061;-71
2021/04/29 05:55:27;;;;;;;12.82;9.13;;;9.80;67.70;;;;;;5019300;28;20048;-68
2021/04/29 05:57:57;;;;;;;12.07;8.85;;;9.90;67.70;;;;;;5015827;28;20544;-69
2021/04/29 06:00:23;;;;;;;12.80;9.00;;;10.10;67.50;;;;;;5017611;28;20073;-69
2021/04/29 06:02:49;;;;;;;11.10;8.63;;;10.10;67.30;;;;;;5024491;28;20066;-67
2021/04/29 06:05:15;;;;;;;11.15;7.35;;;10.20;67.10;;;;;;5031046;28;20371;-68
2021/04/29 06:07:42;;;;;;;13.93;9.20;;;10.30;66.80;;;;;;5031006;28;20468;-68
2021/04/29 06:10:09;;;;;;;12.05;8.38;;;10.40;66.70;;;;;;5031670;28;20061;-68
2021/04/29 06:12:35;;;;;;;15.68;10.27;;;10.50;66.50;;;;;;5030468;28;20053;-68
2021/04/29 06:15:01;;;;;;;12.63;7.82;;;10.50;66.50;;;;;;5032012;28;20052;-68
2021/04/29 06:17:27;;;;;;;12.25;8.23;;;10.50;66.30;;;;;;5031975;28;20033;-68
2021/04/29 06:19:53;;;;;;;13.70;8.57;;;10.60;67.40;;;;;;5031549;28;20535;-69
2021/04/29 06:22:20;;;;;;;14.13;9.23;;;10.50;66.50;;;;;;5031721;28;20389;-69
2021/04/29 06:24:46;;;;;;;11.35;7.63;;;10.60;66.50;;;;;;5031138;28;20056;-67
2021/04/29 06:27:12;;;;;;;11.75;8.18;;;10.70;66.50;;;;;;5027609;28;20057;-67
2021/04/29 06:29:38;;;;;;;11.45;7.85;;;10.70;66.70;;;;;;5030639;28;20061;-67
2021/04/29 06:32:04;;;;;;;11.02;7.13;;;10.80;66.40;;;;;;5025288;28;20062;-67
2021/04/29 06:34:30;;;;;;;10.02;6.63;;;10.90;66.20;;;;;;5017830;28;20442;-67
2021/04/29 06:36:56;;;;;;;10.70;6.63;;;10.90;66.10;;;;;;5020142;28;20475;-67
2021/04/29 06:39:25;;;;;;;8.93;5.82;;;11.00;66.00;;;;;;5015791;28;20056;-67
2021/04/29 06:41:52;;;;;;;10.90;5.95;;;11.20;66.00;;;;;;5017989;28;20420;-66
2021/04/29 06:44:18;;;;;;;8.85;5.28;;;11.30;65.90;;;;;;5018404;28;20076;-66
2021/04/29 06:46:45;;;;;;;11.32;6.20;;;11.30;65.70;;;;;;5026729;28;20084;-67
2021/04/29 06:49:11;;;;;;;10.60;6.18;;;11.50;65.60;;;;;;5030548;28;20476;-66
2021/04/29 06:51:37;;;;;;;9.85;5.63;;;11.50;65.40;;;;;;5031156;28;20095;-66
2021/04/29 06:54:06;;;;;;;8.52;5.70;;;11.60;65.20;;;;;;5045546;28;20052;-66
2021/04/29 06:56:32;;;;;;;9.20;5.53;;;11.80;65.10;;;;;;5025822;28;20489;-67
2021/04/29 06:58:59;;;;;;;11.70;6.47;;;11.90;65.00;;;;;;5031236;28;20033;-63
2021/04/29 07:01:25;;;;;;;11.38;5.63;;;12.10;64.80;;;;;;5028660;28;20065;-63
2021/04/29 07:03:51;;;;;;;9.40;5.57;;;12.20;64.50;;;;;;5026479;28;20056;-63
2021/04/29 07:06:17;;;;;;;9.10;5.15;;;12.40;64.20;;;;;;5030650;28;20042;-63
2021/04/29 07:08:43;;;;;;;10.65;5.57;;;12.60;63.90;;;;;;5024924;28;20432;-63
2021/04/29 07:11:09;;;;;;;8.88;5.03;;;12.80;63.20;;;;;;5030985;28;20033;-64
2021/04/29 07:13:35;;;;;;;13.43;7.25;;;13.10;62.80;;;;;;5027069;28;20049;-63
2021/04/29 07:16:01;;;;;;;10.30;5.93;;;13.30;62.10;;;;;;5030899;28;20525;-63
2021/04/29 07:18:27;;;;;;;11.80;5.60;;;13.60;61.50;;;;;;5028364;28;20049;-64
2021/04/29 07:20:54;;;;;;;9.95;4.72;;;13.90;61.00;;;;;;5031706;28;20091;-63
2021/04/29 07:23:21;;;;;;;11.27;5.47;;;14.20;60.20;;;;;;5025291;28;20061;-64
2021/04/29 07:25:47;;;;;;;11.00;4.30;;;14.50;59.40;;;;;;5016099;28;20064;-64
2021/04/29 07:28:13;;;;;;;7.95;4.03;;;14.90;58.50;;;;;;5032049;28;20053;-63
2021/04/29 07:30:40;;;;;;;8.88;4.90;;;15.20;57.60;;;;;;5031907;28;20064;-64
2021/04/29 07:33:08;;;;;;;11.15;4.78;;;15.60;55.90;;;;;;5030392;28;20441;-64
2021/04/29 07:35:34;;;;;;;8.68;4.20;;;16.00;54.90;;;;;;5026271;28;20058;-64
2021/04/29 07:38:00;;;;;;;9.55;3.85;;;16.40;54.00;;;;;;5029805;28;20056;-63
2021/04/29 07:40:26;;;;;;;10.13;4.18;;;16.70;53.20;;;;;;5030350;28;20053;-64
2021/04/29 07:42:53;;;;;;;7.95;3.60;;;17.00;52.20;;;;;;5030027;28;20033;-64
2021/04/29 07:45:19;;;;;;;10.55;4.28;;;17.30;51.40;;;;;;5030086;28;20057;-62
2021/04/29 07:47:48;;;;;;;7.00;3.20;;;17.50;50.20;;;;;;5022493;28;20053;-64
2021/04/29 07:50:14;;;;;;;8.05;3.45;;;17.80;49.70;;;;;;5021031;28;20461;-64
2021/04/29 07:52:41;;;;;;;7.00;3.80;;;18.10;49.20;;;;;;5026458;28;20072;-64
2021/04/29 07:55:10;;;;;;;7.18;3.28;;;18.30;48.00;;;;;;5027175;28;20057;-64
2021/04/29 07:57:36;;;;;;;6.75;2.97;;;18.50;47.50;;;;;;5029837;28;20083;-64
2021/04/29 08:00:07;;;;;;;9.70;3.42;;;18.50;47.20;;;;;;5032213;28;20458;-65
2021/04/29 08:02:34;;;;;;;9.77;3.53;;;18.70;46.60;;;;;;5034364;28;20064;-64
2021/04/29 08:05:01;;;;;;;7.63;3.67;;;18.80;46.10;;;;;;5033919;28;20057;-64
2021/04/29 08:07:27;;;;;;;9.60;4.10;;;18.80;45.90;;;;;;5033701;28;20049;-63
2021/04/29 08:09:53;;;;;;;8.10;3.50;;;18.80;43.70;;;;;;5028946;28;20080;-64
2021/04/29 08:12:19;;;;;;;7.72;3.20;;;18.40;43.90;;;;;;5029705;28;20053;-64
2021/04/29 08:14:45;;;;;;;7.53;3.00;;;18.30;44.70;;;;;;5033830;28;20057;-64
2021/04/29 08:17:11;;;;;;;7.45;3.03;;;18.40;44.80;;;;;;5033550;28;20063;-64
2021/04/29 08:19:38;;;;;;;7.15;2.90;;;18.60;44.60;;;;;;5034474;28;20495;-64
2021/04/29 08:22:04;;;;;;;6.85;3.00;;;18.80;44.30;;;;;;5034699;28;20041;-64
2021/04/29 08:24:31;;;;;;;6.97;2.78;;;18.80;44.10;;;;;;5035217;28;20061;-64
2021/04/29 08:26:57;;;;;;;7.22;3.58;;;18.80;44.00;;;;;;5033814;28;20053;-64
2021/04/29 08:29:24;;;;;;;6.32;2.70;;;19.00;43.50;;;;;;5034144;28;20060;-64
2021/04/29 08:31:50;;;;;;;6.95;2.85;;;19.20;42.30;;;;;;5033482;28;20013;-64
2021/04/29 08:34:16;;;;;;;6.97;3.10;;;19.00;42.00;;;;;;5032473;28;20076;-64
2021/04/29 08:36:43;;;;;;;6.53;2.88;;;19.00;42.40;;;;;;5029177;28;20057;-64
2021/04/29 08:39:09;;;;;;;6.40;3.13;;;19.30;43.10;;;;;;5032406;28;20071;-64
2021/04/29 08:41:35;;;;;;;8.57;3.10;;;19.60;41.90;;;;;;5034006;28;20489;-64
2021/04/29 08:44:02;;;;;;;6.88;2.80;;;19.90;40.40;;;;;;5032845;28;20072;-64
2021/04/29 08:46:28;;;;;;;5.75;2.60;;;20.10;39.60;;;;;;5031888;28;20060;-64
2021/04/29 08:48:57;;;;;;;6.15;3.00;;;20.40;39.60;;;;;;5030930;28;20080;-65
2021/04/29 08:51:23;;;;;;;4.72;2.42;;;20.60;38.80;;;;;;5032444;28;20057;-64
2021/04/29 08:53:50;;;;;;;6.32;2.30;;;20.80;38.90;;;;;;5032064;28;20064;-64
2021/04/29 08:56:25;;;;;;;6.00;2.42;;;20.90;39.00;;;;;;5032304;28;20565;-64
2021/04/29 08:58:53;;;;;;;7.00;2.78;;;21.10;39.00;;;;;;5032492;28;20048;-64
2021/04/29 09:01:19;;;;;;;5.45;2.38;;;21.10;37.20;;;;;;5031219;28;20079;-64
2021/04/29 09:03:45;;;;;;;6.28;2.80;;;20.90;36.50;;;;;;5032446;28;20059;-64
2021/04/29 09:06:12;;;;;;;6.05;2.58;;;20.40;36.30;;;;;;5020735;28;20069;-64
2021/04/29 09:08:40;;;;;;;6.07;2.30;;;20.30;37.50;;;;;;5031470;28;20451;-64
2021/04/29 09:11:18;;;;;;;5.35;2.15;;;20.30;37.60;;;;;;5022250;28;20068;-64
2021/04/29 09:14:07;;;;;;;4.75;2.08;;;19.80;37.90;;;;;;5032747;28;20060;-64
2021/04/29 09:16:37;;;;;;;3.67;1.80;;;19.30;38.50;;;;;;5032159;28;20048;-64
2021/04/29 09:19:04;;;;;;;;;;;18.80;39.20;;;;;;5033111;28;20061;-64
2021/04/29 09:21:33;;;;;;;6.00;2.28;;;18.70;39.80;;;;;;5032507;28;19970;-64
2021/04/29 09:23:59;;;;;;;5.93;2.10;;;18.80;39.80;;;;;;5032575;28;20078;-64
2021/04/29 09:26:32;;;;;;;3.10;1.70;;;18.60;39.80;;;;;;5031984;28;20053;-64
2021/04/29 09:29:10;;;;;;;3.63;1.80;;;18.50;39.80;;;;;;5032286;28;20076;-64
2021/04/29 09:31:41;;;;;;;3.35;1.50;;;18.30;40.10;;;;;;5032436;28;20053;-64
2021/04/29 09:34:08;;;;;;;4.20;2.00;;;18.00;40.40;;;;;;5031554;28;20056;-64
2021/04/29 09:36:38;;;;;;;3.85;1.90;;;17.80;41.50;;;;;;5029230;28;20032;-64
2021/04/29 09:39:07;;;;;;;3.13;1.52;;;17.90;41.00;;;;;;5032513;28;20033;-64
2021/04/29 09:41:34;;;;;;;4.35;1.83;;;18.20;40.70;;;;;;5031064;28;20370;-64
2021/04/29 09:44:07;;;;;;;3.38;1.65;;;18.10;40.50;;;;;;5031517;28;20076;-64
2021/04/29 09:47:01;;;;;;;4.13;1.90;;;17.80;40.50;;;;;;5027434;28;20057;-64
2021/04/29 09:49:31;;;;;;;3.45;1.70;;;17.40;40.70;;;;;;5018817;28;20062;-64
2021/04/29 09:52:15;;;;;;;2.47;1.48;;;17.10;40.80;;;;;;5021855;28;20049;-64
2021/04/29 09:54:41;;;;;;;3.08;1.80;;;17.00;41.50;;;;;;5032003;28;20053;-64
2021/04/29 09:57:18;;;;;;;3.35;1.77;;;17.30;41.20;;;;;;5032403;28;20049;-64
2021/04/29 09:59:46;;;;;;;3.90;1.63;;;17.50;40.40;;;;;;5031298;28;20061;-64
2021/04/29 10:02:14;;;;;;;2.13;1.30;;;17.50;40.20;;;;;;5032184;28;20563;-64
2021/04/29 10:04:42;;;;;;;3.35;1.63;;;17.20;40.50;;;;;;5032311;28;20067;-64
2021/04/29 10:07:09;;;;;;;3.58;1.58;;;17.00;40.90;;;;;;5031612;28;20069;-64
2021/04/29 10:09:37;;;;;;;4.30;1.80;;;16.90;41.30;;;;;;5029226;28;20085;-64
2021/04/29 10:12:09;;;;;;;2.63;1.50;;;17.10;41.00;;;;;;5025867;28;20059;-64
2021/04/29 10:14:40;;;;;;;5.32;1.65;;;17.60;40.70;;;;;;5032080;28;20045;-65
2021/04/29 10:17:10;;;;;;;2.60;1.58;;;18.00;39.90;;;;;;5032021;28;20056;-65
2021/04/29 10:19:39;;;;;;;3.10;1.47;;;18.30;39.30;;;;;;5032118;28;20473;-65
2021/04/29 10:22:06;;;;;;;3.63;1.65;;;18.40;38.80;;;;;;5031590;28;20171;-64
2021/04/29 10:24:34;;;;;;;2.13;1.50;;;18.60;38.40;;;;;;5028208;28;20065;-64
2021/04/29 10:27:05;;;;;;;3.13;1.58;;;18.70;37.40;;;;;;5030712;28;20470;-76
2021/04/29 10:29:32;;;;;;;2.10;1.30;;;18.70;37.00;;;;;;5030487;28;20049;-76
2021/04/29 10:32:00;;;;;;;2.70;1.30;;;18.70;37.40;;;;;;5028694;28;20053;-67
2021/04/29 10:34:40;;;;;;;2.33;1.30;;;18.80;36.90;;;;;;5026940;28;20072;-69
2021/04/29 10:37:13;;;;;;;2.28;1.25;;;18.80;37.10;;;;;;5022374;28;20544;-69
2021/04/29 10:40:03;;;;;;;2.05;1.30;;;19.00;37.10;;;;;;5017410;28;20061;-69
2021/04/29 10:42:42;;;;;;;2.07;1.30;;;19.10;36.90;;;;;;5027514;28;20030;-68
2021/04/29 10:45:10;;;;;;;2.95;1.40;;;19.20;36.50;;;;;;5029892;28;20057;-68
2021/04/29 10:47:37;;;;;;;3.75;1.70;;;19.10;36.00;;;;;;5029539;28;20516;-68
2021/04/29 10:50:20;;;;;;;2.88;1.50;;;18.60;35.90;;;;;;5027343;28;20069;-68
2021/04/29 10:52:47;;;;;;;2.10;1.20;;;17.90;37.00;;;;;;5028934;28;20094;-69
2021/04/29 10:55:36;;;;;;;1.65;1.15;;;17.50;37.90;;;;;;5028174;28;20057;-78
2021/04/29 10:58:04;;;;;;;2.38;1.35;;;17.20;38.90;;;;;;5024758;28;20056;-81
2021/04/29 11:00:34;;;;;;;1.95;1.30;;;16.90;39.30;;;;;;5042322;28;20046;-80
2021/04/29 11:03:05;;;;;;;1.27;1.10;;;16.70;40.80;;;;;;5026178;28;20477;-78
2021/04/29 11:05:33;;;;;;;1.80;1.20;;;16.40;40.10;;;;;;5029962;28;20446;-78
2021/04/29 11:08:09;;;;;;;1.27;0.90;;;16.30;40.50;;;;;;5027331;28;20081;-82
2021/04/29 11:10:38;;;;;;;1.38;0.93;;;16.10;41.00;;;;;;5030504;28;20555;-80
2021/04/29 11:13:07;;;;;;;1.48;1.17;;;15.90;41.30;;;;;;5029291;28;20056;-78
2021/04/29 11:15:37;;;;;;;2.13;1.40;;;15.80;41.60;;;;;;5029397;28;20053;-78
2021/04/29 11:18:07;;;;;;;2.00;1.50;;;15.70;41.70;;;;;;5026058;28;20053;-79
2021/04/29 11:20:44;;;;;;;;;;;15.60;41.70;;;;;;5026617;28;20061;-79
2021/04/29 11:23:10;;;;;;;1.83;1.40;;;15.50;41.70;;;;;;5022805;28;19952;-79
2021/04/29 11:25:38;;;;;;;2.22;1.40;;;15.40;41.70;;;;;;5029921;28;20482;-80
2021/04/29 11:28:05;;;;;;;1.67;1.10;;;15.40;41.70;;;;;;5026427;28;20049;-77
2021/04/29 11:30:31;;;;;;;1.52;0.90;;;15.40;41.70;;;;;;5029544;28;20063;-80
2021/04/29 11:32:59;;;;;;;1.33;1.10;;;15.40;41.60;;;;;;5030407;28;20057;-79
2021/04/29 11:35:28;;;;;;;2.28;1.00;;;15.40;41.60;;;;;;5028286;28;20046;-80
2021/04/29 11:37:55;;;;;;;1.13;1.02;;;15.40;41.80;;;;;;5024896;28;20068;-80
2021/04/29 11:40:24;;;;;;;1.00;0.88;;;15.40;41.70;;;;;;5024832;28;20441;-80
2021/04/29 11:42:56;;;;;;;1.20;1.05;;;15.40;41.80;;;;;;5027236;28;20030;-79
2021/04/29 11:45:23;;;;;;;1.38;1.10;;;15.40;41.60;;;;;;5022948;28;20053;-79
2021/04/29 11:48:15;;;;;;;1.52;1.02;;;15.40;41.40;;;;;;5027307;28;20071;-80
2021/04/29 11:50:52;;;;;;;0.82;0.82;;;15.30;41.50;;;;;;5026759;28;20038;-80
2021/04/29 11:53:24;;;;;;;2.00;1.10;;;15.40;41.60;;;;;;5037344;28;20064;-80
2021/04/29 11:55:56;;;;;;;2.20;1.25;;;15.60;41.30;;;;;;5035995;28;20461;-80
2021/04/29 11:58:22;;;;;;;2.40;1.35;;;15.80;40.80;;;;;;5018875;28;20030;-80
2021/04/29 12:00:51;;;;;;;1.38;1.10;;;15.90;41.10;;;;;;5016545;28;20049;-81
2021/04/29 12:03:19;;;;;;;1.20;0.90;;;16.20;41.40;;;;;;5019345;28;20069;-81
2021/04/29 12:05:47;;;;;;;1.58;1.00;;;16.50;41.30;;;;;;5024246;28;20536;-79
2021/04/29 12:08:17;;;;;;;1.98;1.08;;;16.60;40.40;;;;;;5027286;28;20069;-79
2021/04/29 12:11:02;;;;;;;1.48;0.85;;;16.60;40.00;;;;;;5030709;28;20498;-79
2021/04/29 12:13:35;;;;;;;1.52;1.10;;;16.50;40.00;;;;;;5019629;28;20061;-80
2021/04/29 12:16:06;;;;;;;1.10;1.00;;;16.40;39.80;;;;;;5024935;28;20073;-80
2021/04/29 12:18:33;;;;;;;1.13;0.90;;;16.30;40.00;;;;;;5025296;28;20069;-79
2021/04/29 12:21:00;;;;;;;1.65;0.82;;;16.20;40.10;;;;;;5028768;28;20049;-79
2021/04/29 12:23:27;;;;;;;1.33;1.10;;;16.20;40.30;;;;;;5017284;28;20061;-80
2021/04/29 12:26:06;;;;;;;1.00;0.75;;;16.10;40.20;;;;;;5030027;28;20057;-79
2021/04/29 12:28:38;;;;;;;1.10;0.80;;;16.00;40.50;;;;;;5031224;28;20060;-80
2021/04/29 12:31:16;;;;;;;1.33;0.90;;;15.90;40.60;;;;;;5031153;28;20049;-79
2021/04/29 12:34:06;;;;;;;1.23;0.90;;;16.00;40.90;;;;;;5010727;28;20045;-80
2021/04/29 12:36:34;;;;;;;1.70;0.98;;;15.90;41.00;;;;;;5029413;28;20064;-79
2021/04/29 12:39:12;;;;;;;0.70;0.70;;;15.90;40.80;;;;;;5030303;28;20060;-79
2021/04/29 12:41:39;;;;;;;1.08;0.70;;;15.90;40.80;;;;;;5030407;28;20052;-79
2021/04/29 12:44:05;;;;;;;0.82;0.70;;;15.90;40.90;;;;;;5029199;28;20056;-79
2021/04/29 12:46:40;;;;;;;0.75;0.75;;;15.80;40.90;;;;;;5032802;28;20452;-79
2021/04/29 12:49:12;;;;;;;0.77;0.70;;;15.90;40.90;;;;;;5032165;28;20017;-80